Aviation Digital Data Service (ADDS)

Output produced by METARs form (1338 UTC 10 July 2020)
found at http://www.aviationweather.gov/metar/data/
 
KHBG 101253Z AUTO 26005KT 10SM FEW055 SCT070 26/24 A3004 RMK AO2 LTG DSNT NE SLP168 T02610239
KHBG 101153Z AUTO 28004KT 8SM CLR 26/24 A3002 RMK AO2 SLP162 7//// T02560239 10267 20244 51012
KHBG 101053Z AUTO 26005KT 9SM SCT055 26/24 A3001 RMK AO2 SLP157 T02560239
KHBG 100953Z AUTO 29004KT 10SM FEW065 26/24 A3000 RMK AO2 SLP154 T02560239
KHBG 100853Z AUTO 26004KT 10SM CLR 26/24 A2998 RMK AO2 SLP149 T02610239 51008
KHBG 100753Z AUTO 26006KT 10SM CLR 26/24 A2998 RMK AO2 SLP146 T02610239
KHBG 100653Z AUTO 00000KT 10SM CLR 25/23 A2997 RMK AO2 SLP146 T02500233
KHBG 100553Z AUTO 00000KT 10SM CLR 25/23 A2996 RMK AO2 SLP142 T02500233 10322 20250 403330228 51010
KHBG 100453Z AUTO 00000KT 9SM CLR 25/24 A2996 RMK AO2 SLP141 T02500239
KHBG 100353Z AUTO 00000KT 10SM CLR 26/24 A2994 RMK AO2 SLP137 T02610239
KHBG 100253Z AUTO 19003KT 10SM CLR 27/24 A2993 RMK AO2 SLPNO T02720239 56003
KHBG 100153Z AUTO 00000KT 10SM CLR 27/24 A2993 RMK AO2 SLP131 T02720244
KHBG 100053Z AUTO 25003KT 10SM CLR 31/23 A2993 RMK AO2 SLP132 T03060233
KHBG 092353Z AUTO 26004KT 10SM CLR 32/23 A2994 RMK AO2 SLP134 T03220228 10333 20306 53000
KHBG 092253Z AUTO 26006KT 10SM CLR 33/22 A2992 RMK AO2 SLP130 T03280222
KHBG 092153Z AUTO 29008KT 10SM CLR 33/22 A2994 RMK AO2 SLP134 T03330222
KHBG 092053Z AUTO VRB04KT 10SM FEW042 33/23 A2994 RMK AO2 SLP134 T03330233 56016
KHBG 091953Z AUTO VRB03KT 10SM SCT039 33/23 A2994 RMK AO2 SLP137 T03280233
KHBG 091853Z AUTO 24007KT 220V290 10SM FEW035 32/23 A2996 RMK AO2 SLP142 T03170233
KHBG 091753Z AUTO VRB04KT 10SM FEW028 SCT036 31/23 A2998 RMK AO2 SLP150 6//// T03110228 58000
KHBG 091653Z AUTO 27007KT 10SM SCT028 BKN037 29/23 A3000 RMK AO2 SLP155 T02940233
KHBG 091619Z AUTO 28005KT 10SM FEW020 SCT025 BKN031 29/23 A3000 RMK AO2 T02890233
KHBG 091609Z AUTO VRB04KT 10SM SCT024 BKN029 30/24 A3000 RMK AO2 T03000244
KHBG 091553Z AUTO 30008KT 10SM 29/24 A3000 RMK AO2 SLP154 T02890239
KHBG 091453Z AUTO A2998 RMK AO2 SLPNO 6//// 51004 PWINO PNO $
KHBG 091434Z AUTO A2998 RMK AO2 PWINO PNO $
KHBG 091405Z AUTO 26006KT 10SM BKN014 27/24 A2998 RMK AO2 T02670239
KHBG 091353Z AUTO 26006KT 9SM SCT009 OVC016 26/24 A2999 RMK AO2 SLP151 T02610239
KHBG 091253Z AUTO 28005KT 8SM OVC008 26/24 A2998 RMK AO2 CIG 007V011 SLP150 T02560239 $
KHBG 091232Z AUTO 28006KT 7SM BKN008 25/23 A2998 RMK AO2 CIG 006V010 T02500233 $
KHBG 091153Z AUTO 28005KT 7SM SCT007 24/23 A2997 RMK AO2 SLP146 70041 T02440233 10244 20228 53012 $
KHBG 091124Z AUTO 27003KT 7SM FEW007 24/23 A2996 RMK AO2 T02390228 $
KHBG 091053Z AUTO 24003KT 9SM CLR 24/23 A2995 RMK AO2 SLP139 T02390228 $
KHBG 090953Z AUTO 25003KT 10SM CLR 24/22 A2995 RMK AO2 SLP138 T02390222 $
KHBG 090853Z AUTO 00000KT 10SM CLR 23/22 A2994 RMK AO2 SLP134 T02330217 56010 $
KHBG 090753Z AUTO 00000KT 10SM CLR 23/22 A2994 RMK AO2 SLP134 T02330217 $
KHBG 090653Z AUTO 00000KT 10SM CLR 23/21 A2994 RMK AO2 SLP136 T02280211 $
KHBG 090553Z AUTO 00000KT 10SM SCT026 SCT032 SCT045 23/22 A2997 RMK AO2 SLP144 60000 T02280217 10239 20228 403110211 50000 $
KHBG 090551Z AUTO 00000KT 10SM FEW026 SCT032 SCT045 23/22 A2997 RMK AO2 $
KHBG 090539Z AUTO 00000KT 10SM BKN028 BKN036 BKN046 23/22 A2997 RMK AO2 T02280217 $
KHBG 090453Z AUTO 17003KT 10SM FEW033 FEW044 23/22 A2997 RMK AO2 SLP146 T02280217 $
KHBG 090353Z AUTO 16004KT 10SM FEW043 23/22 A2997 RMK AO2 RAB16E25 SLP144 P0000 T02280222 $
KHBG 090253Z AUTO 15003KT 10SM CLR 23/22 A2996 RMK AO2 RAE0154B42E51 SLP142 P0000 60000 T02330222 51008 $
KHBG 090153Z AUTO 15004KT 10SM -RA FEW006 23/22 A2995 RMK AO2 RAB46 SLP138 P0000 T02330222 $
KHBG 090115Z AUTO 00000KT 10SM SCT007 24/23 A2995 RMK AO2 T02390228 $
KHBG 090105Z AUTO 17003KT 10SM BKN007 24/23 A2995 RMK AO2 T02390228 $
KHBG 090053Z AUTO 14004KT 10SM SCT006 24/23 A2995 RMK AO2 SLP139 T02390228 $
KHBG 090041Z AUTO 13005KT 10SM SCT006 24/23 A2995 RMK AO2 T02390228 $
KHBG 090029Z AUTO 12005KT 10SM BKN005 24/23 A2995 RMK AO2 CIG 004V009 T02390228 $
KHBG 082353Z AUTO 14004KT 10SM BKN003 24/23 A2994 RMK AO2 RAE27 SLP135 P0001 60040 T02390228 10311 20239 58021 $
KHBG 082316Z AUTO 14003KT 10SM -RA BKN004 BKN017 OVC080 24/23 A2995 RMK AO2 P0001 T02390228 $
KHBG 082302Z AUTO 00000KT 10SM -RA FEW007 BKN075 OVC090 24/23 A2995 RMK AO2 P0000 T02390228 $
KHBG 082253Z AUTO 00000KT 7SM RA FEW050 BKN075 OVC100 24/23 A2995 RMK AO2 TSE07B14E29 SLP138 P0012 T02390228 $
KHBG 082234Z AUTO 00000KT 5SM RA BR OVC100 24/23 A2997 RMK AO2 LTG DSNT E-S TSE07B14E29 P0009 T02390228 $
KHBG 082220Z AUTO 13004KT 4SM +TSRA BR OVC110 24/23 A2998 RMK AO2 LTG DSNT SE AND S TSE07B14 P0005 T02390228 $
KHBG 082213Z AUTO 14003KT 5SM RA BR BKN110 24/23 A2999 RMK AO2 LTG DSNT ALQDS TSE07 P0003 T02390228 $
KHBG 082153Z AUTO 16004KT 6SM TSRA BR BKN110 24/23 A3001 RMK AO2 LTG DSNT ALQDS RAB2055 TSB49 SLP159 P0003 T02390228 $
KHBG 082138Z AUTO 21003KT 6SM VCTS RA BR SCT110 24/23 A3002 RMK AO2 LTG DSNT ALQDS RAB2055 P0001 T02390228 $
KHBG 082119Z AUTO 19004KT 10SM -RA FEW010 FEW095 SCT120 24/22 A3002 RMK AO2 LTG DSNT SE-W RAB2055 P0000 T02440222 $
KHBG 082101Z AUTO 32006KT 10SM VCTS -RA FEW008 SCT070 SCT110 24/23 A3000 RMK AO2 LTG DSNT ALQDS RAB2055 P0000 T02440228 $
KHBG 082053Z AUTO 35003KT 10SM VCTS FEW100 24/22 A3000 RMK AO2 LTG DSNT ALQDS RAB10E19B42E52 SLP156 P0000 60024 T02440222 51015 $
KHBG 082027Z AUTO 03006KT 10SM VCTS FEW039 FEW047 SCT090 24/23 A2999 RMK AO2 LTG DSNT ALQDS RAB10E19 P0000 T02440228 $
KHBG 082005Z AUTO 01007KT 10SM FEW022 BKN037 BKN065 25/23 A3000 RMK AO2 LTG DSNT ALQDS T02500228 $
KHBG 081953Z AUTO 36012G20KT 10SM VCTS SCT022 BKN037 BKN065 25/23 A3000 RMK AO2 PK WND 28032/1859 LTG DSNT ALQDS RAB00E34 TSE03B05E46 SLP155 P0024 T02500228 $
KHBG 081921Z AUTO 35003KT 4SM -TSRA SCT025 SCT032 OVC075 25/22 A2998 RMK AO2 PK WND 28032/1859 LTG DSNT ALQDS RAB00 TSE03B05 P0024 T02500217 $
KHBG 081915Z AUTO 23003G22KT 1SM +TSRA SCT027 BKN033 BKN044 25/22 A2997 RMK AO2 PK WND 28032/1859 LTG DSNT ALQDS RAB00 TSE03B05 P0024 T02500217 $
KHBG 081908Z AUTO 26011G32KT 220V280 3/4SM +TSRA BR BKN029 BKN040 26/23 A2998 RMK AO2 PK WND 28032/1859 LTG DSNT NW-NE RAB00 TSE03B05 PRESRR P0015 T02560233 $
KHBG 081901Z AUTO 28017G32KT 1 3/4SM -TSRA FEW015 SCT027 BKN033 28/24 A2998 RMK AO2 PK WND 28032/1859 LTG DSNT ALQDS RAB00 PRESRR P0008 T02830239 $
KHBG 081853Z AUTO 25006KT 10SM TS SCT029 SCT037 31/24 A2996 RMK AO2 LTG DSNT ALQDS TSB49 SLP142 T03060239 $
KHBG 081837Z AUTO 22010G17KT 10SM VCTS CLR 31/24 A2995 RMK AO2 LTG DSNT ALQDS T03110244 $
KHBG 081753Z AUTO 21006G15KT 10SM CLR 29/24 A2998 RMK AO2 LTG DSNT ALQDS SLP149 60001 T02940244 10294 20222 58017 $
KHBG 081653Z AUTO 25006KT 10SM CLR 29/24 A3001 RMK AO2 LTG DSNT E-SW RAB05E48 SLP158 P0001 T02890244 $
KHBG 081643Z AUTO 25006KT 10SM -RA FEW032 SCT100 28/25 A3001 RMK AO2 LTG DSNT E-SW RAB05 P0001 T02780250 $
KHBG 081627Z AUTO 27006KT 7SM VCTS -RA FEW021 SCT050 BKN095 27/24 A3001 RMK AO2 LTG DSNT SE-SW RAB05 P0001 T02720244 $
KHBG 081619Z AUTO 25008KT 7SM -RA FEW021 SCT047 BKN065 27/24 A3001 RMK AO2 LTG DSNT SE AND SW RAB05 P0001 T02720244 $
KHBG 081553Z AUTO 28008KT 10SM SCT017 BKN022 BKN031 29/24 A3002 RMK AO2 LTG DSNT S SLP161 T02890244 $
KHBG 081453Z AUTO 28006KT 10SM BKN010 BKN016 27/24 A3003 RMK AO2 LTG DSNT SW AND W SLP166 T02720244 53005 $
KHBG 081353Z AUTO 26003KT 10SM BKN006 26/23 A3002 RMK AO2 SLP164 T02610233 $
KHBG 081253Z AUTO 00000KT 10SM BKN008 24/22 A3002 RMK AO2 SLP162 T02390222 $
KHBG 081153Z AUTO 00000KT 8SM FEW016 22/21 A3002 RMK AO2 SLP161 70089 T02220211 10228 20211 51005
KHBG 081053Z AUTO 00000KT 10SM CLR 22/21 A3001 RMK AO2 SLP161 T02170206 $
KHBG 080953Z AUTO 00000KT 9SM CLR 22/21 A3001 RMK AO2 SLP157 T02170206 $
KHBG 080853Z AUTO 00000KT 10SM CLR 22/21 A3000 RMK AO2 SLP156 T02170206 55005 $
KHBG 080753Z AUTO 00000KT 10SM CLR 22/21 A3000 RMK AO2 SLP154 T02220211 $
KHBG 080653Z AUTO 00000KT 10SM CLR 22/21 A3001 RMK AO2 SLP158 T02220211 $
KHBG 080553Z AUTO 00000KT 8SM CLR 23/22 A3002 RMK AO2 SLP161 60000 T02280217 10233 20228 403170228 51005 $
KHBG 080453Z AUTO 00000KT 10SM CLR 23/22 A3001 RMK AO2 RAB0358E11 SLP161 P0000 T02330217 $
KHBG 080353Z AUTO 00000KT 10SM CLR 23/22 A3002 RMK AO2 SLP161 T02330222 $
KHBG 080253Z AUTO 00000KT 10SM CLR 23/22 A3000 RMK AO2 RAB42E51 SLP156 P0000 60000 T02330222 55001 $
KHBG 080153Z AUTO 00000KT 10SM FEW004 23/22 A2999 RMK AO2 SLP151 T02330222 $
KHBG 080131Z AUTO 24004KT 10SM FEW004 SCT120 23/22 A3000 RMK AO2 T02330222 $
KHBG 080053Z AUTO 24003KT 10SM FEW120 23/22 A2999 RMK AO2 RAE11 SLP153 P0000 T02330222 $
KHBG 080022Z AUTO 20006KT 10SM SCT008 23/22 A2998 RMK AO2 RAE11 P0000 T02330217 $
KHBG 072353Z AUTO 02005KT 10SM -RA BKN007 BKN055 OVC100 23/22 A3000 RMK AO2 RAB12 SLP157 P0002 60085 T02330222 10317 20233 55010 $
KHBG 072317Z AUTO 00000KT 10SM -RA FEW006 SCT110 24/23 A3001 RMK AO2 RAB12 P0000 T02390228 $
KHBG 072253Z AUTO 00000KT 10SM FEW095 FEW120 24/22 A2999 RMK AO2 LTG DSNT NW-NE RAB12E42 SLP153 P0001 T02390222 $
KHBG 072153Z AUTO 26004KT 10SM FEW041 SCT060 BKN075 24/22 A3002 RMK AO2 LTG DSNT NW RAE51 TSB14E29 SLP163 P0023 T02390222 $
KHBG 072135Z AUTO 31004KT 9SM -RA FEW037 SCT047 BKN075 24/22 A3002 RMK AO2 LTG DSNT E AND SE AND NW TSB14E29 P0022 T02390222 $
KHBG 072126Z AUTO VRB03KT 3SM -TSRA BR SCT034 BKN044 OVC085 23/22 A3002 RMK AO2 LTG DSNT E TSB14 P0021 T02330222 $
KHBG 072118Z AUTO 23005KT 1 3/4SM +TSRA BR BKN031 BKN046 OVC065 23/22 A3002 RMK AO2 LTG DSNT E AND SE AND W TSB14 P0021 T02330222 $
KHBG 072114Z AUTO 22007KT 3SM -TSRA BR SCT031 BKN044 OVC065 23/22 A3002 RMK AO2 LTG DSNT E AND SE AND W TSB14 P0018 T02330222 $
KHBG 072101Z AUTO 20009KT 1SM VCTS +RA BR BKN032 BKN042 OVC070 24/22 A3003 RMK AO2 LTG DSNT E AND SE AND W P0010 T02390222 $
KHBG 072053Z AUTO 21011G16KT 2 1/2SM VCTS +RA BR SCT031 BKN041 OVC055 24/22 A3003 RMK AO2 LTG DSNT ALQDS RAB1959 TSE07B10E40 SLP167 P0017 60059 T02390222 53005 $
KHBG 072046Z AUTO 22006KT 10SM VCTS -RA SCT031 BKN041 OVC075 24/23 A3003 RMK AO2 LTG DSNT ALQDS RAB1959 TSE07B10E40 P0013 T02440228 $
KHBG 072015Z AUTO 10006KT 3SM TSRA BR SCT041 BKN075 OVC085 24/23 A3002 RMK AO2 LTG DSNT ALQDS RAB1959 TSE07B10 P0011 T02440228 $
KHBG 072001Z AUTO 24006KT 1 3/4SM TSRA BR SCT030 SCT043 BKN065 24/22 A3002 RMK AO2 VIS 1/2V5 LTG DSNT ALQDS RAB1959 P0007 T02390222
KHBG 071953Z AUTO 22006KT 10SM TS SCT014 BKN041 BKN070 24/22 A3002 RMK AO2 PK WND 32030/1921 WSHFT 1913 LTG DSNT ALQDS RAB18E52 TSB15 SLP161 P0042 T02390222 $
KHBG 071940Z AUTO 36005G19KT 2 1/2SM -TSRA SCT014 BKN036 BKN070 24/21 A3001 RMK AO2 PK WND 32030/1921 WSHFT 1913 LTG DSNT ALQDS RAB18 TSB15 P0042 T02390206 $
KHBG 071933Z AUTO 02008G27KT 1/2SM +TSRA BKN014 BKN030 BKN040 24/21 A3000 RMK AO2 PK WND 32030/1921 WSHFT 1913 LTG DSNT ALQDS RAB18 TSB15 P0041 T02390211
KHBG 071927Z AUTO 33011G30KT 3/4SM +TSRA BR SCT018 SCT033 BKN040 24/22 A3002 RMK AO2 PK WND 32030/1921 WSHFT 1913 LTG DSNT N AND NE AND SW RAB18 TSB15 P0028 T02390217
KHBG 071924Z AUTO 33016G30KT 1 1/2SM +TSRA BR FEW027 SCT033 BKN040 24/22 A3003 RMK AO2 PK WND 32030/1921 LTG DSNT N AND NE AND SW RAB18 TSB15 P0009 T02440222
KHBG 071915Z AUTO 31014G21KT 10SM TS FEW033 SCT042 BKN050 30/23 A3001 RMK AO2 LTG DSNT N AND NE TSB15 PRESRR T03000233
KHBG 071853Z AUTO 29009KT 10SM FEW034 32/23 A2999 RMK AO2 LTG DSNT N AND NW TSB17E32 SLP152 T03170233
KHBG 071838Z AUTO 31008KT 10SM FEW030 32/24 A3000 RMK AO2 LTG DSNT N AND NW TSB17E32 T03170239
KHBG 071823Z AUTO 26006KT 10SM TS FEW026 SCT040 SCT055 31/24 A3001 RMK AO2 LTG DSNT N AND NW TSB17 T03110244
KHBG 071806Z AUTO 27007KT 10SM VCTS SCT026 BKN035 BKN042 30/24 A3002 RMK AO2 LTG DSNT NW T03000239
KHBG 071753Z AUTO 31005KT 10SM BKN025 BKN034 30/24 A3002 RMK AO2 LTG DSNT NW RAE04 SLP162 P0000 60004 T03000239 10300 20244 58009
KHBG 071653Z AUTO 29005KT 10SM -RA FEW019 SCT025 BKN031 28/23 A3004 RMK AO2 LTG DSNT NE RAB52 SLP168 P0000 T02780233
KHBG 071638Z AUTO VRB06KT 10SM FEW017 SCT031 BKN041 28/24 A3004 RMK AO2 LTG DSNT NE T02830239
KHBG 071553Z AUTO VRB03KT 10SM FEW013 BKN019 BKN024 27/24 A3004 RMK AO2 LTG DSNT NW RAB10E38 SLP169 P0004 T02670239
KHBG 071527Z AUTO 23003KT 3SM -RA OVC018 26/23 A3005 RMK AO2 LTG DSNT S RAB10 P0004 T02610233 $
KHBG 071523Z AUTO 28003KT 2SM VCTS -RA FEW015 OVC020 26/23 A3005 RMK AO2 LTG DSNT S RAB10 P0004 T02610233 $
KHBG 071516Z AUTO 27003KT 4SM VCTS -RA BKN021 OVC027 26/23 A3005 RMK AO2 LTG DSNT S RAB10 P0002 T02610228 $
KHBG 071453Z AUTO 26004KT 10SM BKN020 BKN038 27/23 A3005 RMK AO2 RAB43E53 SLP171 P0000 60000 T02670228 50007 $
KHBG 071449Z AUTO 23006KT 10SM -RA FEW017 BKN022 BKN038 27/23 A3005 RMK AO2 RAB43 P0000 $
KHBG 071353Z AUTO 27005KT 10SM SCT009 BKN055 26/23 A3003 RMK AO2 SLP167 T02610228
KHBG 101120Z 1012/1112 26005KT P6SM VCSH BKN040 
     FM101800 30007KT P6SM VCTS BKN040CB 
     FM102200 31008KT P6SM SCT050